Nearby METAR Reports

 

KMTN - Baltimore/Martin, Maryland, USA
Distance from station: SSE 8mi, 13km
Updated: Sat, 29-Aug-2015 7:45am EDT
Clear
Clear
 Wind from calm
Wind: Calm
Temperature: 64°F , 18°C
Dew Point: 64°F , 18°C
Humidity: 100%
Barometer: 30.23 inHg , 1023.7 hPa
Clouds: Clear
Visibility: 10 miles , 16 km
2015/08/29 11:45 KMTN 291145Z 00000KT 10SM SKC 18/18 A3023
KDMH - Baltimore/Dwntwn, Maryland, USA
Distance from station: SW 12mi, 19km
Updated: Sat, 29-Aug-2015 7:54am EDT

 
Temperature: 72°F , 22°C
Dew Point: 61°F , 16°C
Humidity: 69%
Barometer: 30.22 inHg , 1023.4 hPa
2015/08/29 11:54 KDMH 291154Z AUTO 22/16 A3022 RMK AO1 SLP232 T02170156 10222 20200 53007
 
KBWI - Balto/Wash Intl, Maryland, USA
Distance from station: SSW 20mi, 33km
Updated: Sat, 29-Aug-2015 7:54am EDT
Mostly cloudy
Mostly cloudy
 Wind from calm
Wind: Calm
Temperature: 64°F , 18°C
Dew Point: 61°F , 16°C
Humidity: 88%
Barometer: 30.21 inHg , 1023 hPa
Clouds: Mostly cloudy
Visibility: 8 miles , 13 km
Cloud details: Partly cloudy 6000 ft
Mostly cloudy 25000 ft
2015/08/29 11:54 KBWI 291154Z 00000KT 8SM SCT060 BKN250 18/16 A3021 RMK AO2 SLP230 T01830156 10183 20150 53008
KDMW - Carroll Cnty, Maryland, USA
Distance from station: WNW 30mi, 48km
Updated: Sat, 29-Aug-2015 8:25am EDT
Clear
Clear
 Wind from SSW
Wind: SSW 7 mph , 11 km/h
Temperature: 70°F , 21°C
Dew Point: 61°F , 16°C
Humidity: 73%
Barometer: 30.23 inHg , 1023.7 hPa
Clouds: Clear
Visibility: 10 miles , 16 km
2015/08/29 12:25 KDMW 291225Z AUTO 20006KT 10SM CLR 21/16 A3023 RMK AO2
 
KNAK - Annapolis/Naval, Maryland, USA
Distance from station: S 30mi, 48km
Updated: Sat, 29-Aug-2015 7:54am EDT
Clear
Clear
 Wind from calm
Wind: Calm
Temperature: 70°F , 21°C
Dew Point: 61°F , 16°C
Humidity: 73%
Barometer: 30.21 inHg , 1023 hPa
Clouds: Clear
Visibility: 10 miles , 16 km
2015/08/29 11:54 KNAK 291154Z AUTO 00000KT 10SM CLR 21/16 A3021 RMK AO2 SLP233 T02110156 10211 20189 53010
KW29 - Stevensville, Maryland, USA
Distance from station: SSE 31mi, 50km
Updated: Sat, 29-Aug-2015 8:27am EDT

 Wind from SSW
Wind: SSW 3 mph , 6 km/h
Temperature: 73°F , 23°C
Dew Point: 61°F , 16°C
Humidity: 65%
Barometer: 30.22 inHg , 1023.4 hPa
Visibility: 10 miles , 16 km
2015/08/29 12:27 KW29 291227Z AUTO 21003KT 10SM 23/16 A3022 RMK AO1
 
KCGS - College Park, Maryland, USA
Distance from station: SW 38mi, 61km
Updated: Sat, 29-Aug-2015 8:25am EDT
Clear
Clear
 Wind from calm
Wind: Calm
Temperature: 68°F , 20°C
Dew Point: 64°F , 18°C
Humidity: 88%
Barometer: 30.21 inHg , 1023 hPa
Clouds: Clear
Visibility: 10 miles , 16 km
2015/08/29 12:25 KCGS 291225Z AUTO 00000KT 10SM CLR 20/18 A3021 RMK AO1
KGAI - Gaithersburg, Maryland, USA
Distance from station: WSW 40mi, 65km
Updated: Sat, 29-Aug-2015 8:15am EDT
Clear
Clear
 Wind from S
Wind: S 5 mph , 7 km/h
Temperature: 70°F , 21°C
Dew Point: 61°F , 16°C
Humidity: 73%
Barometer: 30.26 inHg , 1024.7 hPa
Clouds: Clear
Visibility: 10 miles , 16 km
2015/08/29 12:15 KGAI 291215Z AUTO 18004KT 10SM CLR 21/16 A3026 RMK AO1
 
KTHV - York, Pennsylvania, USA
Distance from station: NNW 40mi, 65km
Updated: Sat, 29-Aug-2015 7:53am EDT
Mist, Clear
Mist, Clear
 Wind from calm
Wind: Calm
Temperature: 61°F , 16°C
Dew Point: 57°F , 14°C
Humidity: 88%
Barometer: 30.21 inHg , 1023 hPa
Summary: Mist
Clouds: Clear
Visibility: 4 miles , 6 km
2015/08/29 11:53 KTHV 291153Z AUTO 00000KT 4SM BR CLR 16/14 A3021 RMK AO2 SLP231 T01560144 10156 20122 53008
KFDK - Frederick, Maryland, USA
Distance from station: W 47mi, 75km
Updated: Sat, 29-Aug-2015 7:50am EDT
Clear
Clear
 Wind from calm
Wind: Calm
Temperature: 61°F , 16°C
Dew Point: 61°F , 16°C
Humidity: 100%
Barometer: 30.24 inHg , 1024 hPa
Clouds: Clear
Visibility: 10 miles , 16 km
2015/08/29 11:50 KFDK 291150Z 00000KT 10SM SKC 16/16 A3024
 
KESN - Easton/Newnam, Maryland, USA
Distance from station: SSE 48mi, 78km
Updated: Sat, 29-Aug-2015 7:50am EDT
Partly cloudy
Partly cloudy
 Wind from calm
Wind: Calm
Temperature: 66°F , 19°C
Dew Point: 66°F , 19°C
Humidity: 100%
Barometer: 30.26 inHg , 1024.7 hPa
Clouds: Partly cloudy
Visibility: 10 miles , 16 km
Cloud details: Partly cloudy 6500 ft
2015/08/29 11:50 KESN 291150Z 00000KT 10SM SCT065 19/19 A3026
KDCA - Washington/Natl, Washington D.c., USA
Distance from station: SW 49mi, 79km
Updated: Sat, 29-Aug-2015 7:52am EDT
Mostly cloudy
Mostly cloudy
 Wind from SSW
Wind: SSW 7 mph , 11 km/h
Temperature: 72°F , 22°C
Dew Point: 63°F , 17°C
Humidity: 73%
Barometer: 30.22 inHg , 1023.4 hPa
Clouds: Mostly cloudy
Visibility: 10 miles , 16 km
Cloud details: Mostly cloudy 6500 ft
2015/08/29 11:52 KDCA 291152Z 20006KT 10SM BKN065 22/17 A3022 RMK AO2 SLP233 T02170172 10222 20194 53007
 
KLNS - Lancaster, Pennsylvania, USA
Distance from station: N 49mi, 79km
Updated: Sat, 29-Aug-2015 7:53am EDT
Mist, Few clouds
Mist, Few clouds
 Wind from calm
Wind: Calm
Temperature: 59°F , 15°C
Dew Point: 57°F , 14°C
Humidity: 94%
Barometer: 30.22 inHg , 1023.4 hPa
Summary: Mist
Clouds: Few Clouds
Visibility: 5 miles , 8 km
Cloud details: Few Clouds 5000 ft
2015/08/29 11:53 KLNS 291153Z 00000KT 5SM BR FEW050 15/14 A3022 RMK AO2 SLP233 T01500144 10150 20122 53008
KILG - Wilmington, Delaware, USA
Distance from station: ENE 50mi, 81km
Updated: Sat, 29-Aug-2015 7:51am EDT
Clear
Clear
 Wind from calm
Wind: Calm
Temperature: 64°F , 18°C
Dew Point: 61°F , 16°C
Humidity: 88%
Barometer: 30.23 inHg , 1023.7 hPa
Clouds: Clear
Visibility: 8 miles , 13 km
2015/08/29 11:51 KILG 291151Z 00000KT 8SM CLR 18/16 A3023 RMK AO2 SLP237 T01830161 10194 20156 53010